Portada
METAR-TAF:

METAR-TAF

Aeroports :

Chesapeake Regional Airport

Norfolk, Virgínia, Estats Units d'Amèrica

latitud: 36-39-56N, longitud: 076-19-14W, altitud: 6 m

Observació

L'informe es va fer fa 25 minuts, a les 00:35 UTC
Vent 3 kt del Est/Sud-Est
Temperatura 25°C
Humitat 83%
Pressió 1016 hPa
Visibilitat: 16.1 km
Núvols disperses a una alçada de 12000 ft

METAR: KCPK 110035Z AUTO 12003KT 10SM SCT120 25/22 A2999 RMK AO2 T02480221

Hora: 21:00 (01:00 UTC)


TAF: manca

Observacions i pronòstics meteorològics de més de 4000 aeroports (METAR i TAF).

Les estacions disponibles són els punts grocs i vermells al mapa.

Posi el ratolí al punt desitjat per veure el nom de l'estació.

Feu clic per veure les observacions i els pronòstics meteorològics.

Per canviar el mapa: feu clic els botons verds amb una creu de color negre per apropar; al botó verd amb un guió per allunyar la imatge; o en les fletxes verdes per a mapes adjacents.


METAR-TAF: